createdAt,value
2023-01-05T00:01:05.761Z,9.33
2023-01-05T00:06:04.903Z,9.50
2023-01-05T00:11:23.394Z,9.23
2023-01-05T00:16:38.473Z,9.51
2023-01-05T00:21:53.761Z,9.53
2023-01-05T00:26:51.245Z,9.44
2023-01-05T00:31:48.221Z,9.40
2023-01-05T00:36:45.075Z,9.37
2023-01-05T00:41:41.867Z,9.17
2023-01-05T00:46:39.421Z,9.05
2023-01-05T00:51:36.243Z,9.10
2023-01-05T00:56:33.147Z,8.76
2023-01-05T01:01:30.032Z,9.09
2023-01-05T01:06:28.838Z,8.70
2023-01-05T01:11:25.594Z,9.09
2023-01-05T01:16:22.949Z,9.12
2023-01-05T01:21:19.752Z,9.16
2023-01-05T01:26:17.742Z,9.29
2023-01-05T01:31:14.760Z,9.30
2023-01-05T01:36:11.615Z,9.37
2023-01-05T01:41:08.529Z,9.34
2023-01-05T01:46:06.725Z,9.23
2023-01-05T01:51:10.271Z,9.29
2023-01-05T01:56:10.202Z,9.19
2023-01-05T02:01:08.176Z,9.41
2023-01-05T02:06:05.561Z,9.32
2023-01-05T02:11:27.647Z,9.34
2023-01-05T02:16:33.665Z,9.70
2023-01-05T02:21:44.423Z,9.46
2023-01-05T02:27:21.965Z,9.71
2023-01-05T02:32:23.903Z,9.30
2023-01-05T02:37:28.324Z,9.74
2023-01-05T02:42:28.307Z,9.75
2023-01-05T02:47:38.241Z,9.56
2023-01-05T02:52:43.206Z,9.56
2023-01-05T02:57:47.327Z,9.66
2023-01-05T03:02:53.536Z,9.63
2023-01-05T03:07:51.962Z,9.47
2023-01-05T03:13:10.828Z,9.72
2023-01-05T03:18:12.429Z,9.65
2023-01-05T03:23:36.079Z,9.75
2023-01-05T03:28:57.144Z,9.20
2023-01-05T03:34:24.993Z,9.67
2023-01-05T03:39:26.225Z,9.65
2023-01-05T03:44:23.959Z,9.65
2023-01-05T03:49:21.558Z,9.34
2023-01-05T03:54:20.827Z,9.47
2023-01-05T03:59:18.817Z,9.54
2023-01-05T04:04:15.675Z,9.69
2023-01-05T04:09:14.415Z,9.65
2023-01-05T04:14:13.585Z,9.61
2023-01-05T04:19:11.668Z,9.68
2023-01-05T04:24:10.427Z,9.48
2023-01-05T04:29:11.261Z,9.72
2023-01-05T04:34:09.420Z,9.77
2023-01-05T04:39:08.022Z,9.81
2023-01-05T04:44:07.832Z,9.52
2023-01-05T04:49:06.138Z,9.65
2023-01-05T04:54:03.109Z,9.55
2023-01-05T04:59:00.955Z,9.86
2023-01-05T05:03:59.447Z,9.84
2023-01-05T05:08:57.129Z,9.54
2023-01-05T05:13:56.479Z,9.56
2023-01-05T05:18:56.498Z,9.94
2023-01-05T05:23:57.360Z,9.87
2023-01-05T05:28:54.221Z,9.74
2023-01-05T05:33:51.172Z,9.96
2023-01-05T05:38:48.242Z,9.97
2023-01-05T05:43:45.729Z,9.96
2023-01-05T05:48:42.527Z,9.77
2023-01-05T05:53:39.441Z,10.00
2023-01-05T05:58:36.522Z,9.88
2023-01-05T06:03:34.319Z,9.30
2023-01-05T06:08:31.286Z,9.94
2023-01-05T06:13:28.212Z,9.69
2023-01-05T06:18:28.111Z,9.87
2023-01-05T06:23:25.855Z,9.55
2023-01-05T06:28:24.306Z,9.49
2023-01-05T06:33:21.317Z,9.29
2023-01-05T06:38:18.291Z,9.38
2023-01-05T06:43:15.822Z,9.41
2023-01-05T06:48:15.495Z,9.36
2023-01-05T06:53:12.418Z,9.07
2023-01-05T06:58:09.360Z,9.24
2023-01-05T07:03:07.311Z,9.49
2023-01-05T07:08:04.608Z,9.55
2023-01-05T07:13:01.485Z,9.69
2023-01-05T07:17:58.343Z,9.78
2023-01-05T07:22:55.835Z,9.80
2023-01-05T07:27:52.885Z,9.83
2023-01-05T07:32:49.715Z,9.61
2023-01-05T07:37:46.621Z,9.91
2023-01-05T07:42:44.194Z,10.38
2023-01-05T07:47:41.196Z,9.95
2023-01-05T07:52:39.242Z,10.35
2023-01-05T07:57:36.622Z,10.92
2023-01-05T08:02:36.226Z,10.91
2023-01-05T08:07:35.034Z,11.53
2023-01-05T08:12:32.255Z,11.78
2023-01-05T08:17:29.230Z,11.85
2023-01-05T08:22:27.239Z,12.04
2023-01-05T08:27:25.867Z,12.24
2023-01-05T08:32:23.273Z,12.62
2023-01-05T08:37:20.247Z,13.03
2023-01-05T08:42:17.913Z,13.18
2023-01-05T08:47:17.996Z,13.49
2023-01-05T08:52:15.376Z,13.53
2023-01-05T08:57:12.313Z,13.77
2023-01-05T09:02:12.250Z,14.03
2023-01-05T09:07:09.427Z,13.87
2023-01-05T09:12:07.215Z,14.30
2023-01-05T09:17:08.388Z,13.88
2023-01-05T09:22:06.531Z,14.04
2023-01-05T09:27:04.929Z,14.27
2023-01-05T09:32:02.051Z,14.10
2023-01-05T09:36:59.065Z,14.47
2023-01-05T09:42:00.772Z,14.41
2023-01-05T09:47:02.600Z,14.34
2023-01-05T09:52:03.305Z,14.61
2023-01-05T09:57:10.592Z,14.19
2023-01-05T10:02:18.171Z,14.43
2023-01-05T10:07:23.522Z,14.26
2023-01-05T10:12:44.486Z,13.41
2023-01-05T10:17:43.711Z,13.88
2023-01-05T10:22:51.266Z,13.38
2023-01-05T10:27:58.313Z,13.36
2023-01-05T10:33:21.817Z,13.75
2023-01-05T10:38:31.516Z,14.07
2023-01-05T10:44:04.385Z,13.86
2023-01-05T10:49:01.893Z,13.75
2023-01-05T10:53:58.895Z,13.83
2023-01-05T10:59:14.820Z,13.69
2023-01-05T11:09:39.127Z,14.18
2023-01-05T11:14:43.335Z,13.79
2023-01-05T11:19:45.414Z,14.72
2023-01-05T11:24:42.598Z,15.08
2023-01-05T11:29:40.472Z,15.16
2023-01-05T11:34:41.771Z,15.22
2023-01-05T11:39:42.943Z,14.94
2023-01-05T11:44:43.495Z,14.89
2023-01-05T11:49:40.709Z,15.08
2023-01-05T11:54:38.773Z,14.71
2023-01-05T11:59:42.259Z,14.42
2023-01-05T12:05:03.705Z,14.66
2023-01-05T12:10:21.625Z,14.60
2023-01-05T12:15:54.994Z,14.53
2023-01-05T12:21:04.143Z,14.52
2023-01-05T12:26:10.320Z,14.63
2023-01-05T12:33:35.751Z,14.41
2023-01-05T12:37:21.706Z,14.49
2023-01-05T12:42:32.332Z,14.50
2023-01-05T12:47:48.675Z,14.85
2023-01-05T12:52:49.868Z,14.90
2023-01-05T12:57:53.523Z,14.89
2023-01-05T13:02:55.335Z,14.57
2023-01-05T13:07:56.893Z,14.57
2023-01-05T13:13:00.678Z,14.58
2023-01-05T13:18:01.311Z,14.51
2023-01-05T13:23:04.171Z,14.71
2023-01-05T13:28:00.984Z,14.68
2023-01-05T13:33:15.023Z,14.60
2023-01-05T13:38:37.223Z,14.49
2023-01-05T13:44:19.059Z,14.37
2023-01-05T13:49:44.380Z,14.22
2023-01-05T13:55:00.091Z,14.04
2023-01-05T14:00:12.033Z,14.06
2023-01-05T14:05:17.006Z,13.79
2023-01-05T14:10:23.422Z,13.86
2023-01-05T14:15:39.162Z,13.49
2023-01-05T14:20:40.112Z,13.67
2023-01-05T14:25:52.786Z,13.55
2023-01-05T14:30:51.201Z,13.44
2023-01-05T14:36:04.293Z,13.18
2023-01-05T14:41:15.799Z,13.19
2023-01-05T14:46:15.153Z,13.08
2023-01-05T14:51:23.216Z,12.88
2023-01-05T14:56:24.162Z,12.55
2023-01-05T15:01:25.798Z,12.50
2023-01-05T15:06:34.936Z,12.63
2023-01-05T15:11:56.079Z,12.58
2023-01-05T15:17:15.277Z,12.50
2023-01-05T15:22:38.174Z,12.42
2023-01-05T15:27:54.038Z,12.36
2023-01-05T15:33:04.232Z,12.02
2023-01-05T15:38:19.115Z,12.19
2023-01-05T15:43:17.653Z,11.88
2023-01-05T15:48:20.526Z,12.04
2023-01-05T15:53:27.498Z,12.14
2023-01-05T15:58:27.785Z,11.91
2023-01-05T16:03:29.339Z,12.03
2023-01-05T16:08:27.513Z,11.51
2023-01-05T16:13:33.407Z,11.64
2023-01-05T16:18:45.031Z,11.33
2023-01-05T16:23:49.881Z,11.45
2023-01-05T16:28:47.597Z,11.60
2023-01-05T16:33:46.047Z,11.52
2023-01-05T16:38:46.572Z,10.99
2023-01-05T16:43:52.929Z,11.23
2023-01-05T16:48:52.273Z,11.43
2023-01-05T16:53:52.710Z,11.43
2023-01-05T16:58:53.167Z,11.46
2023-01-05T17:03:51.050Z,11.26
2023-01-05T17:08:48.333Z,11.49
2023-01-05T17:13:48.009Z,11.45
2023-01-05T17:18:46.134Z,11.58
2023-01-05T17:23:46.533Z,11.60
2023-01-05T17:28:46.240Z,11.48
2023-01-05T17:33:43.119Z,11.45
2023-01-05T17:38:40.930Z,11.17
2023-01-05T17:43:37.711Z,11.36
2023-01-05T17:48:36.963Z,11.62
2023-01-05T17:53:33.759Z,11.59
2023-01-05T17:58:31.427Z,11.36
2023-01-05T18:03:31.089Z,11.62
2023-01-05T18:08:28.165Z,11.73
2023-01-05T18:13:25.266Z,11.18
2023-01-05T18:18:23.659Z,11.67
2023-01-05T18:23:23.710Z,11.91
2023-01-05T18:28:20.572Z,11.95
2023-01-05T18:33:17.499Z,12.04
2023-01-05T18:38:15.138Z,12.09
2023-01-05T18:43:12.105Z,12.17
2023-01-05T18:48:09.135Z,12.23
2023-01-05T18:53:06.071Z,11.88
2023-01-05T18:58:03.648Z,12.22
2023-01-05T19:03:00.711Z,12.14
2023-01-05T19:07:57.621Z,11.91
2023-01-05T19:12:54.449Z,12.35
2023-01-05T19:17:52.938Z,12.40
2023-01-05T19:22:51.071Z,12.23
2023-01-05T19:27:47.843Z,12.40
2023-01-05T19:32:46.566Z,12.25
2023-01-05T19:37:44.745Z,12.02
2023-01-05T19:42:44.192Z,12.52
2023-01-05T19:47:43.194Z,12.55
2023-01-05T19:52:45.233Z,12.18
2023-01-05T19:57:42.906Z,12.52
2023-01-05T20:02:41.425Z,12.47
2023-01-05T20:07:40.964Z,12.45
2023-01-05T20:12:37.752Z,12.42
2023-01-05T20:17:35.403Z,12.39
2023-01-05T20:22:32.271Z,12.36
2023-01-05T20:27:29.130Z,12.00
2023-01-05T20:32:28.502Z,12.28
2023-01-05T20:37:27.896Z,12.08
2023-01-05T20:42:25.736Z,12.23
2023-01-05T20:47:22.715Z,12.19
2023-01-05T20:52:19.522Z,12.09
2023-01-05T20:57:17.106Z,12.14
2023-01-05T21:02:24.282Z,11.95
2023-01-05T21:07:22.601Z,12.01
2023-01-05T21:12:20.708Z,11.90
2023-01-05T21:17:17.620Z,11.40
2023-01-05T21:22:15.018Z,11.72
2023-01-05T21:27:11.941Z,11.54
2023-01-05T21:32:09.655Z,11.35
2023-01-05T21:37:06.473Z,11.17
2023-01-05T21:42:21.267Z,11.76
2023-01-05T21:47:18.939Z,11.74
2023-01-05T21:52:34.068Z,11.80
2023-01-05T21:57:30.994Z,11.56
2023-01-05T22:02:28.721Z,11.87
2023-01-05T22:07:25.847Z,11.57
2023-01-05T22:12:22.764Z,11.57
2023-01-05T22:17:19.553Z,11.69
2023-01-05T22:22:17.220Z,11.77
2023-01-05T22:27:14.165Z,11.39
2023-01-05T22:32:11.099Z,11.20
2023-01-05T22:37:07.973Z,11.34
2023-01-05T22:42:05.701Z,11.29
2023-01-05T22:47:02.534Z,11.21
2023-01-05T22:51:59.422Z,11.12
2023-01-05T22:56:56.526Z,10.98
2023-01-05T23:01:54.169Z,10.59
2023-01-05T23:06:51.266Z,10.89
2023-01-05T23:11:48.165Z,10.73
2023-01-05T23:16:45.302Z,10.73
2023-01-05T23:21:43.051Z,10.66
2023-01-05T23:26:39.879Z,10.53
2023-01-05T23:31:37.007Z,10.54
2023-01-05T23:36:33.793Z,10.35
2023-01-05T23:41:31.382Z,10.44
2023-01-05T23:46:28.225Z,10.06
2023-01-05T23:51:25.157Z,10.30
2023-01-05T23:56:23.598Z,10.23
